Time;durP1;ratioP1;P1;durP2;ratioP2;P2;SDS_P1;SDS_P2;PMS_P1;PMS_P2;Temp;Humidity;BMP_temperature;BMP_pressure;BME280_temperature;BME280_humidity;BME280_pressure;Samples;Min_cycle;Max_cycle;Signal;HPM_P1;HPM_P2
2024/01/02 00:01:29;;;;;;;255.57;145.32;;;;;;;;;;5006192;28;20035;-73
2024/01/02 00:03:54;;;;;;;224.18;138.52;;;;;;;;;;5000561;28;20030;-74
2024/01/02 00:06:20;;;;;;;214.18;133.85;;;;;;;;;;5006735;28;20013;-74
2024/01/02 00:08:46;;;;;;;203.73;122.13;;;;;;;;;;5005900;28;20089;-73
2024/01/02 00:11:12;;;;;;;219.75;127.30;;;;;;;;;;4999681;28;20029;-74
2024/01/02 00:13:38;;;;;;;196.70;115.50;;;;;;;;;;5005005;28;20038;-74
2024/01/02 00:16:04;;;;;;;183.07;102.10;;;;;;;;;;4993347;28;20049;-73
2024/01/02 00:18:29;;;;;;;173.45;96.05;;;;;;;;;;4987997;28;20039;-73
2024/01/02 00:20:56;;;;;;;155.43;88.05;;;;;;;;;;4989809;28;20057;-72
2024/01/02 00:23:21;;;;;;;151.00;83.22;;;;;;;;;;4989254;28;20038;-73
2024/01/02 00:25:47;;;;;;;155.38;90.15;;;;;;;;;;4983539;28;20030;-73
2024/01/02 00:28:13;;;;;;;151.95;85.22;;;;;;;;;;4984996;28;25879;-73
2024/01/02 00:30:40;;;;;;;154.98;88.30;;;;;;;;;;4984599;28;20041;-74
2024/01/02 00:33:07;;;;;;;150.02;81.43;;;;;;;;;;4970338;28;20058;-74
2024/01/02 00:35:33;;;;;;;135.48;74.25;;;;;;;;;;4994367;28;20109;-72
2024/01/02 00:38:00;;;;;;;135.50;77.43;;;;;;;;;;4987318;28;20672;-73
2024/01/02 00:40:26;;;;;;;127.88;74.18;;;;;;;;;;4987780;28;20034;-73
2024/01/02 00:42:52;;;;;;;139.50;75.97;;;;;;;;;;4987228;28;20054;-72
2024/01/02 00:45:17;;;;;;;138.13;77.47;;;;;;;;;;5004214;28;20052;-72
2024/01/02 00:47:43;;;;;;;141.45;77.88;;;;;;;;;;4989597;28;20036;-73
2024/01/02 00:50:09;;;;;;;142.10;78.75;;;;;;;;;;4989767;28;20038;-73
2024/01/02 00:52:35;;;;;;;137.35;75.47;;;;;;;;;;5025674;28;20061;-73
2024/01/02 00:55:05;;;;;;;135.27;74.72;;;;;;;;;;4994752;28;20430;-72
2024/01/02 00:57:32;;;;;;;138.15;79.35;;;;;;;;;;4994730;28;20038;-72
2024/01/02 00:59:58;;;;;;;137.68;78.15;;;;;;;;;;4993088;28;20129;-73
2024/01/02 01:02:24;;;;;;;146.55;82.07;;;;;;;;;;5009275;28;20023;-73
2024/01/02 01:04:50;;;;;;;136.32;77.60;;;;;;;;;;4992839;28;20036;-73
2024/01/02 01:07:16;;;;;;;151.63;82.60;;;;;;;;;;5009315;28;20049;-73
2024/01/02 01:09:42;;;;;;;162.90;90.82;;;;;;;;;;4994451;28;20026;-73
2024/01/02 01:12:08;;;;;;;148.93;83.82;;;;;;;;;;5008584;28;20048;-72
2024/01/02 01:14:35;;;;;;;152.45;86.20;;;;;;;;;;4992877;28;20042;-72
2024/01/02 01:17:01;;;;;;;154.98;83.65;;;;;;;;;;5009424;28;20026;-74
2024/01/02 01:19:27;;;;;;;166.60;95.68;;;;;;;;;;5009405;28;20070;-73
2024/01/02 01:21:53;;;;;;;160.45;91.78;;;;;;;;;;4992759;28;20073;-72
2024/01/02 01:24:18;;;;;;;172.30;98.18;;;;;;;;;;4992613;28;20026;-72
2024/01/02 01:26:45;;;;;;;185.15;106.03;;;;;;;;;;4989178;28;20046;-72
2024/01/02 01:29:12;;;;;;;174.13;100.18;;;;;;;;;;4991424;28;20037;-72
2024/01/02 01:31:38;;;;;;;179.98;103.65;;;;;;;;;;4992792;28;20030;-73
2024/01/02 01:34:04;;;;;;;171.35;98.63;;;;;;;;;;4993763;28;20041;-73
2024/01/02 01:36:29;;;;;;;179.30;110.20;;;;;;;;;;4993899;28;20030;-74
2024/01/02 01:38:55;;;;;;;180.98;104.10;;;;;;;;;;4991966;28;20038;-74
2024/01/02 01:41:21;;;;;;;166.93;98.10;;;;;;;;;;5000688;28;20038;-73
2024/01/02 01:43:47;;;;;;;186.90;108.38;;;;;;;;;;4992432;28;20046;-74
2024/01/02 01:46:14;;;;;;;177.27;103.47;;;;;;;;;;5008594;28;20105;-72
2024/01/02 01:48:40;;;;;;;150.45;85.68;;;;;;;;;;4992396;28;20041;-73
2024/01/02 01:51:07;;;;;;;151.07;86.78;;;;;;;;;;4992392;28;20092;-73
2024/01/02 01:53:34;;;;;;;143.70;80.97;;;;;;;;;;4993490;28;20030;-73
2024/01/02 01:56:00;;;;;;;149.02;84.15;;;;;;;;;;4992544;28;20057;-73
2024/01/02 01:58:27;;;;;;;148.63;83.85;;;;;;;;;;4994142;28;20126;-72
2024/01/02 02:00:53;;;;;;;128.85;76.78;;;;;;;;;;4976781;28;20278;-73
2024/01/02 02:03:18;;;;;;;128.88;72.97;;;;;;;;;;4991958;28;20045;-73
2024/01/02 02:05:45;;;;;;;134.43;75.38;;;;;;;;;;4993212;28;20042;-74
2024/01/02 02:08:11;;;;;;;130.27;73.95;;;;;;;;;;4993407;28;20018;-72
2024/01/02 02:10:37;;;;;;;128.13;72.70;;;;;;;;;;4991796;28;20045;-73
2024/01/02 02:13:03;;;;;;;123.45;73.18;;;;;;;;;;4992668;28;20038;-72
2024/01/02 02:15:29;;;;;;;129.00;70.15;;;;;;;;;;5008128;28;20033;-73
2024/01/02 02:17:55;;;;;;;129.82;71.05;;;;;;;;;;4991737;28;20038;-74
2024/01/02 02:20:21;;;;;;;122.60;70.22;;;;;;;;;;4993441;28;20030;-72
2024/01/02 02:22:50;;;;;;;125.85;72.80;;;;;;;;;;4992273;28;20473;-73
2024/01/02 02:25:16;;;;;;;134.23;75.80;;;;;;;;;;4991458;28;20038;-73
2024/01/02 02:27:42;;;;;;;136.15;74.63;;;;;;;;;;4992959;28;20531;-72
2024/01/02 02:30:08;;;;;;;140.30;75.40;;;;;;;;;;4991811;28;20061;-73
2024/01/02 02:32:34;;;;;;;136.40;77.95;;;;;;;;;;4992992;28;20034;-73
2024/01/02 02:35:00;;;;;;;137.18;78.60;;;;;;;;;;4988333;28;20481;-73
2024/01/02 02:37:25;;;;;;;149.90;83.68;;;;;;;;;;4988440;28;20045;-73
2024/01/02 02:39:51;;;;;;;131.60;75.13;;;;;;;;;;4973470;28;20397;-73
2024/01/02 02:42:17;;;;;;;134.07;79.07;;;;;;;;;;4973532;28;20042;-73
2024/01/02 02:44:43;;;;;;;147.85;82.05;;;;;;;;;;4972085;28;20027;-73
2024/01/02 02:47:09;;;;;;;138.38;77.50;;;;;;;;;;4988296;28;20046;-72
2024/01/02 02:49:36;;;;;;;139.18;78.53;;;;;;;;;;4972429;28;20093;-73
2024/01/02 02:52:02;;;;;;;137.15;77.72;;;;;;;;;;4972115;28;20077;-72
2024/01/02 02:54:28;;;;;;;132.65;73.03;;;;;;;;;;4987978;28;20453;-73
2024/01/02 02:56:54;;;;;;;131.38;72.88;;;;;;;;;;4988786;28;20035;-73
2024/01/02 02:59:19;;;;;;;129.50;72.22;;;;;;;;;;5006562;28;20027;-74
2024/01/02 03:01:45;;;;;;;129.50;77.25;;;;;;;;;;4991097;28;20088;-73
2024/01/02 03:04:11;;;;;;;159.05;92.38;;;;;;;;;;4991277;28;20038;-74
2024/01/02 03:06:37;;;;;;;169.75;95.40;;;;;;;;;;4992541;28;20033;-74
2024/01/02 03:09:03;;;;;;;161.23;91.65;;;;;;;;;;4991133;28;20030;-73
2024/01/02 03:11:29;;;;;;;145.57;88.85;;;;;;;;;;4992507;28;20034;-73
2024/01/02 03:13:55;;;;;;;150.05;83.57;;;;;;;;;;4992386;28;20030;-73
2024/01/02 03:16:23;;;;;;;151.23;85.20;;;;;;;;;;4992511;28;20042;-73
2024/01/02 03:18:48;;;;;;;148.32;85.60;;;;;;;;;;4992366;28;20122;-73
2024/01/02 03:21:14;;;;;;;138.80;82.13;;;;;;;;;;4992050;28;20117;-73
2024/01/02 03:23:40;;;;;;;144.88;82.68;;;;;;;;;;4992118;28;20108;-73
2024/01/02 03:26:06;;;;;;;165.82;88.72;;;;;;;;;;4992026;28;20555;-73
2024/01/02 03:28:32;;;;;;;156.13;87.63;;;;;;;;;;4992262;28;20026;-73
2024/01/02 03:30:58;;;;;;;143.07;81.72;;;;;;;;;;4990895;28;20027;-73
2024/01/02 03:33:24;;;;;;;140.85;81.45;;;;;;;;;;4990251;28;20053;-73
2024/01/02 03:35:50;;;;;;;140.95;82.47;;;;;;;;;;4992395;28;20140;-72
2024/01/02 03:38:15;;;;;;;142.10;82.97;;;;;;;;;;4994111;28;20034;-73
2024/01/02 03:40:41;;;;;;;156.48;86.43;;;;;;;;;;4994913;28;20062;-73
2024/01/02 03:43:07;;;;;;;146.07;85.75;;;;;;;;;;4994627;28;20519;-72
2024/01/02 03:45:33;;;;;;;142.73;85.07;;;;;;;;;;4995801;28;20076;-73
2024/01/02 03:48:00;;;;;;;150.50;80.72;;;;;;;;;;4995937;28;20574;-73
2024/01/02 03:50:26;;;;;;;143.52;81.72;;;;;;;;;;4995645;28;20026;-73
2024/01/02 03:52:52;;;;;;;160.27;92.15;;;;;;;;;;4995823;28;20030;-72
2024/01/02 03:55:17;;;;;;;149.27;84.85;;;;;;;;;;4995778;28;20038;-72
2024/01/02 03:57:43;;;;;;;163.23;95.00;;;;;;;;;;4995761;28;20477;-74
2024/01/02 04:00:09;;;;;;;155.48;88.60;;;;;;;;;;4995465;28;20026;-73
2024/01/02 04:02:35;;;;;;;152.63;88.30;;;;;;;;;;4995609;28;20038;-73
2024/01/02 04:05:03;;;;;;;137.15;74.55;;;;;;;;;;4995263;28;20034;-73
2024/01/02 04:07:29;;;;;;;136.07;74.78;;;;;;;;;;4995671;28;20026;-73
2024/01/02 04:09:55;;;;;;;137.48;78.63;;;;;;;;;;4995677;28;20369;-74
2024/01/02 04:12:21;;;;;;;126.22;72.63;;;;;;;;;;4995584;28;20449;-73
2024/01/02 04:14:46;;;;;;;123.65;71.65;;;;;;;;;;4993754;28;20037;-74
2024/01/02 04:17:12;;;;;;;125.07;70.18;;;;;;;;;;4989812;28;20038;-74
2024/01/02 04:19:38;;;;;;;121.38;70.65;;;;;;;;;;4994564;28;20035;-72
2024/01/02 04:22:04;;;;;;;126.82;69.97;;;;;;;;;;4992931;28;20484;-74
2024/01/02 04:24:30;;;;;;;117.93;64.65;;;;;;;;;;4994398;28;20508;-73
2024/01/02 04:26:56;;;;;;;109.30;60.30;;;;;;;;;;4994610;28;20116;-72
2024/01/02 04:29:22;;;;;;;118.38;62.83;;;;;;;;;;4994360;28;20053;-73
2024/01/02 04:31:47;;;;;;;104.38;57.75;;;;;;;;;;4994060;28;20061;-74
2024/01/02 04:34:13;;;;;;;111.03;60.90;;;;;;;;;;4994568;28;20035;-73
2024/01/02 04:36:40;;;;;;;94.07;52.15;;;;;;;;;;4994882;28;20082;-74
2024/01/02 04:39:06;;;;;;;108.63;58.92;;;;;;;;;;4994523;28;20038;-73
2024/01/02 04:41:32;;;;;;;117.32;66.30;;;;;;;;;;4994253;28;20488;-72
2024/01/02 04:43:58;;;;;;;105.55;61.67;;;;;;;;;;4993948;28;20029;-72
2024/01/02 04:46:23;;;;;;;142.15;75.00;;;;;;;;;;4993077;28;20038;-72
2024/01/02 04:48:50;;;;;;;135.18;79.30;;;;;;;;;;4994620;28;20027;-76
2024/01/02 04:51:15;;;;;;;141.20;78.97;;;;;;;;;;4993939;28;20460;-73
2024/01/02 04:53:41;;;;;;;172.05;88.15;;;;;;;;;;5008896;28;20034;-73
2024/01/02 04:56:07;;;;;;;157.82;87.55;;;;;;;;;;4989680;28;20035;-73
2024/01/02 04:58:33;;;;;;;156.90;84.63;;;;;;;;;;4989067;28;20401;-74
2024/01/02 05:00:58;;;;;;;156.10;87.15;;;;;;;;;;4994342;28;20117;-74
2024/01/02 05:03:24;;;;;;;149.27;83.50;;;;;;;;;;4994994;28;20022;-74
2024/01/02 05:05:50;;;;;;;163.38;87.07;;;;;;;;;;5009217;28;20042;-73
2024/01/02 05:08:16;;;;;;;163.80;87.78;;;;;;;;;;4994126;28;20097;-73
2024/01/02 05:10:41;;;;;;;143.98;75.35;;;;;;;;;;4995094;28;20551;-73
2024/01/02 05:13:07;;;;;;;141.50;80.57;;;;;;;;;;4994105;28;20105;-73
2024/01/02 05:15:33;;;;;;;151.77;83.68;;;;;;;;;;4993739;28;20020;-73
2024/01/02 05:17:58;;;;;;;144.65;84.38;;;;;;;;;;4993868;28;20037;-73
2024/01/02 05:20:24;;;;;;;148.38;82.72;;;;;;;;;;4993604;28;20096;-73
2024/01/02 05:22:49;;;;;;;149.40;80.47;;;;;;;;;;4993999;28;20025;-73
2024/01/02 05:25:15;;;;;;;151.98;75.18;;;;;;;;;;4993686;28;20041;-72
2024/01/02 05:27:41;;;;;;;143.38;81.63;;;;;;;;;;4993598;28;20540;-72
2024/01/02 05:30:07;;;;;;;154.82;79.60;;;;;;;;;;4992224;28;20072;-73
2024/01/02 05:32:33;;;;;;;129.80;72.18;;;;;;;;;;4993439;28;20240;-73
2024/01/02 05:34:58;;;;;;;129.43;70.15;;;;;;;;;;4993447;28;20113;-73
2024/01/02 05:37:24;;;;;;;133.68;78.60;;;;;;;;;;4993203;28;20038;-73
2024/01/02 05:39:50;;;;;;;120.28;68.43;;;;;;;;;;4993104;28;20034;-72
2024/01/02 05:42:15;;;;;;;127.47;71.13;;;;;;;;;;4993241;28;20049;-74
2024/01/02 05:44:41;;;;;;;130.85;74.63;;;;;;;;;;4993185;28;20374;-73
2024/01/02 05:47:07;;;;;;;136.18;76.82;;;;;;;;;;4993395;28;20065;-73
2024/01/02 05:49:32;;;;;;;140.20;83.00;;;;;;;;;;4992905;28;20030;-73
2024/01/02 05:51:58;;;;;;;138.48;76.10;;;;;;;;;;4993236;28;20586;-74
2024/01/02 05:54:24;;;;;;;139.13;73.13;;;;;;;;;;4993208;28;20049;-73
2024/01/02 05:56:50;;;;;;;137.65;71.78;;;;;;;;;;4991960;28;20045;-73
2024/01/02 05:59:15;;;;;;;127.95;73.75;;;;;;;;;;4992993;28;20399;-73
2024/01/02 06:01:41;;;;;;;128.60;71.32;;;;;;;;;;4991900;28;20022;-74
2024/01/02 06:04:07;;;;;;;129.02;66.38;;;;;;;;;;4989894;28;20038;-73
2024/01/02 06:06:32;;;;;;;112.30;65.40;;;;;;;;;;4991455;28;20048;-73
2024/01/02 06:08:58;;;;;;;129.57;67.68;;;;;;;;;;4991639;28;20081;-74
2024/01/02 06:11:25;;;;;;;131.98;70.90;;;;;;;;;;4993113;28;20045;-74
2024/01/02 06:13:51;;;;;;;135.32;75.65;;;;;;;;;;4991960;28;20034;-74
2024/01/02 06:16:16;;;;;;;138.48;79.03;;;;;;;;;;4992654;28;20084;-74
2024/01/02 06:18:42;;;;;;;122.80;71.63;;;;;;;;;;4992974;28;20041;-73
2024/01/02 06:21:08;;;;;;;127.25;67.03;;;;;;;;;;4992793;28;20061;-73
2024/01/02 06:23:34;;;;;;;124.90;68.10;;;;;;;;;;4991435;28;20038;-73
2024/01/02 06:26:00;;;;;;;132.65;70.25;;;;;;;;;;4992516;28;20042;-74
2024/01/02 06:28:26;;;;;;;126.25;69.50;;;;;;;;;;4992860;28;20496;-73
2024/01/02 06:30:52;;;;;;;128.98;71.97;;;;;;;;;;4993027;28;20096;-74
2024/01/02 06:33:17;;;;;;;149.07;75.68;;;;;;;;;;4992722;28;20049;-73
2024/01/02 06:35:43;;;;;;;145.05;72.00;;;;;;;;;;4984399;28;20063;-73
2024/01/02 06:38:09;;;;;;;139.73;73.63;;;;;;;;;;4992426;28;20026;-73
2024/01/02 06:40:35;;;;;;;136.35;70.90;;;;;;;;;;4992249;28;20042;-73
2024/01/02 06:43:02;;;;;;;134.05;75.47;;;;;;;;;;4992008;28;20035;-73
2024/01/02 06:45:27;;;;;;;134.18;72.93;;;;;;;;;;4998313;28;20042;-72
2024/01/02 06:47:53;;;;;;;125.82;69.28;;;;;;;;;;4992026;28;20049;-73
2024/01/02 06:50:18;;;;;;;120.85;66.60;;;;;;;;;;4990789;28;20118;-74
2024/01/02 06:52:44;;;;;;;134.35;73.82;;;;;;;;;;4991613;28;20472;-74
2024/01/02 06:55:10;;;;;;;120.20;67.95;;;;;;;;;;4996420;28;20073;-74
2024/01/02 06:57:36;;;;;;;116.03;62.05;;;;;;;;;;4991453;28;20511;-73
2024/01/02 07:00:01;;;;;;;117.20;64.03;;;;;;;;;;4991560;28;20115;-73
2024/01/02 07:02:29;;;;;;;135.23;76.05;;;;;;;;;;4990557;28;20121;-72
2024/01/02 07:04:55;;;;;;;132.02;67.28;;;;;;;;;;4991416;28;20038;-73
2024/01/02 07:07:21;;;;;;;128.88;70.15;;;;;;;;;;4991121;28;20109;-73
2024/01/02 07:09:46;;;;;;;141.80;71.50;;;;;;;;;;4991955;28;20034;-72
2024/01/02 07:12:12;;;;;;;113.65;65.35;;;;;;;;;;4995597;28;20045;-73
2024/01/02 07:14:38;;;;;;;119.53;65.57;;;;;;;;;;4995335;28;20037;-72
2024/01/02 07:17:04;;;;;;;129.38;68.10;;;;;;;;;;4995075;28;20041;-73
2024/01/02 07:19:30;;;;;;;147.57;72.75;;;;;;;;;;4995443;28;20034;-74
2024/01/02 07:21:55;;;;;;;143.05;69.95;;;;;;;;;;4995279;28;20030;-72
2024/01/02 07:24:21;;;;;;;140.88;78.03;;;;;;;;;;4994951;28;20042;-73
2024/01/02 07:26:47;;;;;;;138.23;79.53;;;;;;;;;;4987022;28;20472;-73
2024/01/02 07:29:13;;;;;;;151.07;85.22;;;;;;;;;;4994995;28;20038;-73
2024/01/02 07:31:39;;;;;;;132.98;75.10;;;;;;;;;;4995105;28;20076;-73
2024/01/02 07:34:05;;;;;;;134.75;76.22;;;;;;;;;;4995131;28;20109;-74
2024/01/02 07:36:31;;;;;;;142.13;74.60;;;;;;;;;;4994217;28;20030;-74
2024/01/02 07:38:56;;;;;;;142.07;81.10;;;;;;;;;;4995265;28;20122;-73
2024/01/02 07:41:22;;;;;;;141.57;75.88;;;;;;;;;;4995242;28;20137;-72
2024/01/02 07:43:48;;;;;;;132.13;72.30;;;;;;;;;;4986937;28;20030;-74
2024/01/02 07:46:15;;;;;;;122.90;71.35;;;;;;;;;;4995212;28;20038;-74
2024/01/02 07:48:41;;;;;;;122.43;72.30;;;;;;;;;;4994119;28;20030;-73
2024/01/02 07:51:07;;;;;;;122.60;66.07;;;;;;;;;;4995165;28;20032;-73
2024/01/02 07:53:33;;;;;;;141.75;76.53;;;;;;;;;;4994010;28;20447;-72
2024/01/02 07:56:01;;;;;;;133.95;76.65;;;;;;;;;;4994384;28;20030;-72
2024/01/02 07:58:27;;;;;;;135.48;80.25;;;;;;;;;;4994148;28;20380;-72
2024/01/02 08:00:52;;;;;;;136.38;82.80;;;;;;;;;;4992162;28;20100;-74
2024/01/02 08:03:18;;;;;;;146.15;86.47;;;;;;;;;;5000481;28;20038;-74
2024/01/02 08:05:44;;;;;;;145.38;84.18;;;;;;;;;;5002543;28;20038;-74
2024/01/02 08:08:10;;;;;;;155.55;80.97;;;;;;;;;;5005387;28;20088;-72
2024/01/02 08:10:35;;;;;;;150.27;83.13;;;;;;;;;;5003239;28;20045;-73
2024/01/02 08:13:01;;;;;;;136.20;76.55;;;;;;;;;;5001970;28;20039;-73
2024/01/02 08:15:27;;;;;;;142.52;80.60;;;;;;;;;;5002845;28;20041;-73
2024/01/02 08:17:53;;;;;;;125.93;71.93;;;;;;;;;;4968285;28;20034;-73
2024/01/02 08:20:18;;;;;;;125.75;72.28;;;;;;;;;;5003691;28;20357;-72
2024/01/02 08:22:44;;;;;;;122.93;71.63;;;;;;;;;;5002332;28;20365;-73
2024/01/02 08:25:10;;;;;;;120.53;68.57;;;;;;;;;;4997293;28;20322;-73
2024/01/02 08:27:36;;;;;;;127.00;72.43;;;;;;;;;;4995466;28;20133;-73
2024/01/02 08:30:03;;;;;;;129.48;73.57;;;;;;;;;;4992005;28;20038;-73
2024/01/02 08:32:29;;;;;;;126.57;72.10;;;;;;;;;;5000912;28;20038;-73
2024/01/02 08:34:54;;;;;;;130.35;71.25;;;;;;;;;;4989384;28;20034;-73
2024/01/02 08:37:20;;;;;;;119.57;68.43;;;;;;;;;;4993341;28;20548;-73
2024/01/02 08:39:47;;;;;;;116.70;63.95;;;;;;;;;;5001341;28;20155;-73
2024/01/02 08:42:14;;;;;;;112.22;63.30;;;;;;;;;;4993334;28;20714;-73
2024/01/02 08:44:40;;;;;;;104.05;61.25;;;;;;;;;;5000992;28;20037;-73
2024/01/02 08:47:06;;;;;;;106.88;60.60;;;;;;;;;;5003213;28;20490;-73
2024/01/02 08:49:31;;;;;;;106.35;61.22;;;;;;;;;;5008275;28;20026;-72
2024/01/02 08:51:57;;;;;;;106.35;60.92;;;;;;;;;;5003784;28;20104;-72
2024/01/02 08:54:23;;;;;;;96.95;57.03;;;;;;;;;;4998982;28;20037;-73
2024/01/02 08:56:48;;;;;;;94.82;54.20;;;;;;;;;;5004199;28;20042;-72
2024/01/02 08:59:15;;;;;;;94.82;55.17;;;;;;;;;;5006940;28;20483;-73
2024/01/02 09:01:40;;;;;;;95.50;54.83;;;;;;;;;;5004772;28;20112;-74
2024/01/02 09:04:06;;;;;;;95.95;54.78;;;;;;;;;;4993694;28;20503;-72
2024/01/02 09:06:32;;;;;;;98.28;54.55;;;;;;;;;;4989240;28;20038;-73
2024/01/02 09:08:57;;;;;;;103.95;57.38;;;;;;;;;;5000990;28;20037;-72
2024/01/02 09:11:24;;;;;;;94.55;54.38;;;;;;;;;;4996220;28;20282;-73
2024/01/02 09:13:50;;;;;;;89.35;53.58;;;;;;;;;;4992023;28;20034;-71
2024/01/02 09:16:16;;;;;;;97.90;53.47;;;;;;;;;;5006487;28;20535;-73
2024/01/02 09:18:41;;;;;;;69.95;42.03;;;;;;;;;;4998773;28;20030;-72
2024/01/02 09:21:07;;;;;;;86.18;48.85;;;;;;;;;;5010654;28;20037;-73
2024/01/02 09:23:34;;;;;;;91.03;53.38;;;;;;;;;;4996155;28;20038;-74
2024/01/02 09:26:01;;;;;;;103.53;54.60;;;;;;;;;;5010012;28;20040;-73
2024/01/02 09:28:30;;;;;;;100.90;53.13;;;;;;;;;;5007532;28;20021;-74
2024/01/02 09:30:56;;;;;;;113.43;53.78;;;;;;;;;;5011992;28;20083;-75
2024/01/02 09:33:25;;;;;;;105.55;58.42;;;;;;;;;;4996769;28;20113;-72
2024/01/02 09:35:51;;;;;;;96.55;57.65;;;;;;;;;;5009317;28;20368;-73
2024/01/02 09:38:18;;;;;;;92.40;55.88;;;;;;;;;;5007819;28;20029;-73
2024/01/02 09:41:07;;;;;;;83.80;49.70;;;;;;;;;;5002656;28;20030;-74
2024/01/02 09:43:36;;;;;;;99.55;52.95;;;;;;;;;;4997345;28;20034;-73
2024/01/02 09:46:16;;;;;;;82.30;47.83;;;;;;;;;;5008209;28;20451;-74
2024/01/02 09:49:03;;;;;;;83.82;47.13;;;;;;;;;;4992118;28;20058;-74
2024/01/02 09:52:00;;;;;;;74.82;43.00;;;;;;;;;;4990476;28;20100;-73
2024/01/02 09:54:49;;;;;;;79.47;45.17;;;;;;;;;;4990850;28;20044;-74
2024/01/02 09:57:29;;;;;;;77.57;46.28;;;;;;;;;;5003813;28;20065;-74
2024/01/02 10:00:47;;;;;;;80.82;46.72;;;;;;;;;;4989628;28;20053;-74
2024/01/02 10:03:40;;;;;;;78.72;48.08;;;;;;;;;;4991928;28;20057;-75
2024/01/02 10:06:27;;;;;;;86.68;48.08;;;;;;;;;;5011605;28;20077;-74
2024/01/02 10:09:28;;;;;;;71.50;43.05;;;;;;;;;;4993268;28;20034;-74
2024/01/02 10:12:00;;;;;;;65.63;41.47;;;;;;;;;;4991221;28;20467;-73
2024/01/02 10:14:35;;;;;;;73.18;40.80;;;;;;;;;;4990680;28;20034;-74
2024/01/02 10:17:52;;;;;;;63.20;39.45;;;;;;;;;;5001143;28;20029;-75
2024/01/02 10:20:45;;;;;;;67.28;39.38;;;;;;;;;;4995991;28;20077;-74
2024/01/02 10:23:32;;;;;;;71.20;41.78;;;;;;;;;;4990564;28;20034;-74
2024/01/02 10:26:00;;;;;;;91.78;51.92;;;;;;;;;;4991019;28;20143;-74
2024/01/02 10:28:29;;;;;;;102.38;59.38;;;;;;;;;;4991692;28;20125;-73
2024/01/02 10:31:33;;;;;;;101.70;57.17;;;;;;;;;;4990960;28;20038;-74
2024/01/02 10:34:22;;;;;;;94.45;58.08;;;;;;;;;;4997290;28;20120;-73
2024/01/02 10:36:56;;;;;;;96.57;57.30;;;;;;;;;;4993944;28;20030;-74
2024/01/02 10:39:30;;;;;;;77.50;46.72;;;;;;;;;;4989240;28;20042;-74
2024/01/02 10:42:03;;;;;;;73.72;47.17;;;;;;;;;;4992531;28;20478;-74
2024/01/02 10:44:51;;;;;;;83.65;47.33;;;;;;;;;;5003137;28;20105;-74
2024/01/02 10:47:49;;;;;;;79.88;48.40;;;;;;;;;;4991560;28;20035;-74
2024/01/02 10:50:23;;;;;;;81.50;49.33;;;;;;;;;;4983597;28;20088;-73
2024/01/02 10:52:55;;;;;;;86.28;52.22;;;;;;;;;;5005592;28;20131;-74
2024/01/02 10:55:29;;;;;;;78.57;49.42;;;;;;;;;;4997429;28;20026;-74
2024/01/02 10:58:17;;;;;;;87.15;50.70;;;;;;;;;;4989535;28;20034;-73
2024/01/02 11:01:11;;;;;;;80.47;48.13;;;;;;;;;;4990718;28;20125;-74
2024/01/02 11:04:05;;;;;;;83.80;49.42;;;;;;;;;;4987984;28;20114;-73
2024/01/02 11:06:54;;;;;;;;;;;;;;;;;;5004006;28;20052;-74
2024/01/02 11:09:27;;;;;;;82.93;48.17;;;;;;;;;;4987603;28;20023;-73
2024/01/02 11:11:57;;;;;;;83.85;47.88;;;;;;;;;;5010124;28;20034;-73
2024/01/02 11:14:24;;;;;;;91.60;50.78;;;;;;;;;;5002157;28;20041;-73
2024/01/02 11:16:52;;;;;;;80.07;48.20;;;;;;;;;;5008990;28;20049;-73
2024/01/02 11:19:23;;;;;;;73.60;43.85;;;;;;;;;;4998223;28;20088;-75
2024/01/02 11:22:23;;;;;;;78.88;49.90;;;;;;;;;;5009787;28;20172;-73
2024/01/02 11:24:56;;;;;;;89.35;53.67;;;;;;;;;;4993380;28;20094;-74
2024/01/02 11:27:23;;;;;;;93.10;51.35;;;;;;;;;;4990432;28;20034;-75
2024/01/02 11:29:53;;;;;;;80.32;48.47;;;;;;;;;;4990903;28;20377;-74
2024/01/02 11:32:39;;;;;;;79.07;48.83;;;;;;;;;;5002390;28;20168;-74
2024/01/02 11:35:07;;;;;;;72.22;44.78;;;;;;;;;;4988750;28;20096;-73
2024/01/02 11:37:38;;;;;;;79.45;46.95;;;;;;;;;;4989158;28;20038;-73
2024/01/02 11:40:21;;;;;;;77.28;46.75;;;;;;;;;;4995015;28;20062;-74
2024/01/02 11:43:06;;;;;;;73.43;45.67;;;;;;;;;;4989978;28;20524;-74
2024/01/02 11:45:38;;;;;;;81.38;46.25;;;;;;;;;;4990365;28;20117;-74
2024/01/02 11:48:25;;;;;;;73.32;45.08;;;;;;;;;;4989755;28;20030;-73
2024/01/02 11:50:55;;;;;;;65.82;38.38;;;;;;;;;;4985799;28;20037;-75
2024/01/02 11:53:32;;;;;;;58.47;37.20;;;;;;;;;;4990185;28;20089;-73
2024/01/02 11:56:05;;;;;;;71.72;40.35;;;;;;;;;;5008565;28;20125;-74
2024/01/02 11:58:42;;;;;;;61.72;38.30;;;;;;;;;;5010639;28;20034;-73
2024/01/02 12:01:25;;;;;;;57.83;35.83;;;;;;;;;;5013033;28;20435;-75
2024/01/02 12:04:23;;;;;;;49.25;32.70;;;;;;;;;;5001400;28;20425;-73
2024/01/02 12:07:01;;;;;;;47.38;33.25;;;;;;;;;;5002237;28;20061;-73
2024/01/02 12:09:30;;;;;;;47.65;32.85;;;;;;;;;;4992447;28;20034;-73
2024/01/02 12:12:20;;;;;;;46.85;31.65;;;;;;;;;;5010426;28;20036;-74
2024/01/02 12:15:19;;;;;;;46.03;30.20;;;;;;;;;;4991844;28;20034;-73
2024/01/02 12:18:05;;;;;;;45.42;27.83;;;;;;;;;;5004194;28;20049;-72
2024/01/02 12:20:50;;;;;;;43.05;28.27;;;;;;;;;;5001789;28;20081;-73
2024/01/02 12:23:16;;;;;;;;;;;;;;;;;;4993885;28;20030;-73
2024/01/02 12:25:46;;;;;;;40.58;25.73;;;;;;;;;;4987513;28;19920;-73
2024/01/02 12:28:12;;;;;;;40.35;26.42;;;;;;;;;;4993608;28;20499;-72
2024/01/02 12:30:50;;;;;;;40.55;27.48;;;;;;;;;;4993721;28;20129;-73
2024/01/02 12:33:34;;;;;;;42.72;26.67;;;;;;;;;;4993104;28;20032;-73
2024/01/02 12:36:05;;;;;;;39.63;25.30;;;;;;;;;;4990985;28;20076;-72
2024/01/02 12:38:48;;;;;;;39.83;24.10;;;;;;;;;;4993847;28;20034;-72
2024/01/02 12:41:24;;;;;;;40.23;24.63;;;;;;;;;;5003111;28;20042;-73
2024/01/02 12:43:56;;;;;;;41.95;26.23;;;;;;;;;;5009190;28;20271;-73
2024/01/02 12:46:39;;;;;;;33.92;23.30;;;;;;;;;;5001986;28;20392;-73
2024/01/02 12:49:10;;;;;;;34.92;23.00;;;;;;;;;;4992847;28;20030;-72
2024/01/02 12:51:41;;;;;;;30.90;22.08;;;;;;;;;;5004804;28;20038;-73
2024/01/02 12:54:08;;;;;;;38.72;20.98;;;;;;;;;;4992741;28;20061;-74
2024/01/02 12:56:39;;;;;;;32.55;22.02;;;;;;;;;;4997693;28;20033;-72
2024/01/02 12:59:06;;;;;;;35.05;22.38;;;;;;;;;;4995609;28;20042;-74
2024/01/02 13:01:32;;;;;;;28.98;19.10;;;;;;;;;;5001475;28;20037;-72
2024/01/02 13:03:59;;;;;;;35.20;20.45;;;;;;;;;;4992261;28;20038;-73
2024/01/02 13:06:26;;;;;;;30.23;20.83;;;;;;;;;;4984943;28;20029;-74
2024/01/02 13:08:54;;;;;;;35.60;20.83;;;;;;;;;;4991979;28;20097;-74
2024/01/02 13:11:21;;;;;;;34.88;22.02;;;;;;;;;;5011267;28;20088;-74
2024/01/02 13:13:50;;;;;;;32.28;21.17;;;;;;;;;;5009464;28;20026;-74
2024/01/02 13:16:19;;;;;;;33.20;20.48;;;;;;;;;;4992447;28;20077;-74
2024/01/02 13:18:47;;;;;;;31.50;21.10;;;;;;;;;;4989467;28;20053;-73
2024/01/02 13:21:13;;;;;;;31.02;20.77;;;;;;;;;;4991493;28;20445;-74
2024/01/02 13:23:56;;;;;;;34.20;22.05;;;;;;;;;;4992888;28;20193;-74
2024/01/02 13:26:23;;;;;;;32.53;21.37;;;;;;;;;;4992454;28;20469;-74
2024/01/02 13:28:50;;;;;;;37.17;21.33;;;;;;;;;;5000524;28;20404;-74
2024/01/02 13:31:33;;;;;;;38.65;22.02;;;;;;;;;;5009224;28;20079;-74
2024/01/02 13:34:05;;;;;;;41.22;22.60;;;;;;;;;;4992164;28;20050;-73
2024/01/02 13:36:31;;;;;;;31.88;22.25;;;;;;;;;;4991716;28;20129;-74
2024/01/02 13:38:57;;;;;;;35.40;22.25;;;;;;;;;;4990938;28;20145;-74
2024/01/02 13:41:24;;;;;;;33.83;21.27;;;;;;;;;;4997682;28;20096;-74
2024/01/02 13:43:51;;;;;;;32.58;20.65;;;;;;;;;;5006138;28;20018;-74
2024/01/02 13:46:22;;;;;;;30.33;19.50;;;;;;;;;;4989925;28;20042;-74
2024/01/02 13:48:58;;;;;;;26.95;17.55;;;;;;;;;;4997653;28;20034;-74
2024/01/02 13:51:27;;;;;;;26.23;17.73;;;;;;;;;;4983157;28;20030;-74
2024/01/02 13:53:59;;;;;;;32.58;19.40;;;;;;;;;;5006164;28;20113;-73
2024/01/02 13:56:25;;;;;;;29.30;18.40;;;;;;;;;;5011082;28;20065;-73
2024/01/02 13:59:11;;;;;;;29.77;19.00;;;;;;;;;;5011560;28;20044;-74
2024/01/02 14:01:42;;;;;;;31.60;19.90;;;;;;;;;;4994410;28;20100;-73
2024/01/02 14:04:28;;;;;;;28.33;17.60;;;;;;;;;;5009335;28;20428;-77
2024/01/02 14:07:01;;;;;;;26.98;17.40;;;;;;;;;;5011694;28;20044;-74
2024/01/02 14:09:27;;;;;;;18.42;13.00;;;;;;;;;;5010148;28;20034;-74
2024/01/02 14:11:55;;;;;;;23.15;14.80;;;;;;;;;;5011499;28;20105;-74
2024/01/02 14:14:40;;;;;;;25.17;15.27;;;;;;;;;;5009821;28;20417;-74
2024/01/02 14:17:23;;;;;;;25.52;17.48;;;;;;;;;;5010935;28;20033;-75
2024/01/02 14:19:54;;;;;;;40.65;23.92;;;;;;;;;;5010125;28;20453;-73
2024/01/02 14:22:34;;;;;;;39.13;22.55;;;;;;;;;;5009800;28;20042;-74